PILOTS ONLINE: 387    ATC ONLINE: 86

NFFN

Nadi International Airport

Location

IATA NAN
City Nadi
Country  Fiji
Latitude 17° 45' 19" S
Longitude 177° 26' 34" E
Elevation 59 ft
Type Medium Airport

Map

Weather

METAR
2014/08/30 02:00
NFFN 300200Z 27013KT 9999 FEW030 27/20 Q1012 NOSIG
TAF
2014/08/29 18:10
TAF NFFN 291607Z 2918/3018 09008KT 9999 FEW030 SCT045 
      BECMG 3002/3004 27012KT 
      BECMG 3006/3008 09005KT

Runways

02/20 10739 ft / 150 ft
09/27 7007 ft / 150 ft

Outbound flights

Callsign Flying to Pilot ATD/STD ETA Aircraft

Inbound flights

Callsign Flying from Pilot ATD ETA Aircraft